Main page
METAR-TAF:

METAR-TAF

Airports :

Cayenne – Félix Eboué Airport

Cayenne, French Guiana

latitude: 04-50N, longitude: 052-22W, elevation: 105 m

Current weather observation

The report was made 35 minutes ago, at 08:30 UTC
Calm wind
Temperature 23°C
Humidity 100%
Pressure 1011 hPa
Visibility 10 km or more
Scattered clouds at a height of 2500 ft
Scattered clouds at a height of 3500 ft

METAR: SOCA 210830Z AUTO 00000KT 9999 SCT025 SCT035 23/23 Q1011 NOSIG

Time: 06:05 (09:05 UTC)

Forecast

The report was made 4 hours and 5 minutes ago, at 05:00 UTC
Forecast valid from 21 at 06 UTC to 22 at 06 UTC
Wind 3 kt from variable directions
Visibility 10 km or more
Few clouds at a height of 2000 ft
Becoming
from 21 at 13 UTC to 21 at 15 UTC
Wind 10 kt from the East
Becoming
from 21 at 22 UTC to 21 at 24 UTC
Wind 3 kt from variable directions

TAF: SOCA 210500Z 2106/2206 VRB03KT 9999 FEW020 BECMG 2113/2115 09010KT BECMG 2122/2124 VRB03KT

Weather observations and forecasts of more than 4000 airports (METAR and TAF reports).

The available stations are represented by yellow and red dots on the map.

Hover mouse over dot to see the name of the station.

Then click to see weather observations and forecasts.

To change the map : click on the green buttons with a black cross to zoom in, on the green button with a dash to zoom out, or on the green arrows for adjacent maps.


METAR-TAF: